sensor_id;sensor_type;location;lat;lon;timestamp;temperature;humidity
51579;DHT22;47998;53.242;6.386;2023-05-09T00:01:27;13.80;99.90
51579;DHT22;47998;53.242;6.386;2023-05-09T00:03:56;13.90;99.90
51579;DHT22;47998;53.242;6.386;2023-05-09T00:06:23;13.90;99.90
51579;DHT22;47998;53.242;6.386;2023-05-09T00:08:50;13.70;99.90
51579;DHT22;47998;53.242;6.386;2023-05-09T00:11:16;13.50;99.90
51579;DHT22;47998;53.242;6.386;2023-05-09T00:13:41;13.70;99.90
51579;DHT22;47998;53.242;6.386;2023-05-09T00:16:09;13.40;99.90
51579;DHT22;47998;53.242;6.386;2023-05-09T00:18:35;13.70;99.90
51579;DHT22;47998;53.242;6.386;2023-05-09T00:21:02;13.50;99.90
51579;DHT22;47998;53.242;6.386;2023-05-09T00:23:31;13.70;99.90
51579;DHT22;47998;53.242;6.386;2023-05-09T00:25:58;13.50;99.90
51579;DHT22;47998;53.242;6.386;2023-05-09T00:28:23;13.50;99.90
51579;DHT22;47998;53.242;6.386;2023-05-09T00:30:49;13.70;99.90
51579;DHT22;47998;53.242;6.386;2023-05-09T00:33:15;13.40;99.90
51579;DHT22;47998;53.242;6.386;2023-05-09T00:35:41;13.50;99.90
51579;DHT22;47998;53.242;6.386;2023-05-09T00:38:07;13.50;99.90
51579;DHT22;47998;53.242;6.386;2023-05-09T00:40:32;13.40;99.90
51579;DHT22;47998;53.242;6.386;2023-05-09T00:42:59;13.40;99.90
51579;DHT22;47998;53.242;6.386;2023-05-09T00:45:25;13.40;99.90
51579;DHT22;47998;53.242;6.386;2023-05-09T00:47:50;13.30;99.90
51579;DHT22;47998;53.242;6.386;2023-05-09T00:50:16;13.20;99.90
51579;DHT22;47998;53.242;6.386;2023-05-09T00:52:42;13.40;99.90
51579;DHT22;47998;53.242;6.386;2023-05-09T00:55:08;13.30;99.90
51579;DHT22;47998;53.242;6.386;2023-05-09T00:57:35;13.30;99.90
51579;DHT22;47998;53.242;6.386;2023-05-09T01:00:01;13.20;99.90
51579;DHT22;47998;53.242;6.386;2023-05-09T01:02:29;13.30;99.90
51579;DHT22;47998;53.242;6.386;2023-05-09T01:04:56;13.30;99.90
51579;DHT22;47998;53.242;6.386;2023-05-09T01:07:37;13.30;99.90
51579;DHT22;47998;53.242;6.386;2023-05-09T01:12:53;13.20;99.90
51579;DHT22;47998;53.242;6.386;2023-05-09T01:18:32;13.30;99.90
51579;DHT22;47998;53.242;6.386;2023-05-09T01:21:19;13.20;99.90
51579;DHT22;47998;53.242;6.386;2023-05-09T01:29:36;13.10;99.90
51579;DHT22;47998;53.242;6.386;2023-05-09T01:32:08;13.20;99.90
51579;DHT22;47998;53.242;6.386;2023-05-09T01:34:37;13.30;99.90
51579;DHT22;47998;53.242;6.386;2023-05-09T01:37:06;13.10;99.90
51579;DHT22;47998;53.242;6.386;2023-05-09T01:39:33;13.40;99.90
51579;DHT22;47998;53.242;6.386;2023-05-09T01:42:03;13.10;99.90
51579;DHT22;47998;53.242;6.386;2023-05-09T01:44:36;13.10;99.90
51579;DHT22;47998;53.242;6.386;2023-05-09T01:47:03;13.20;99.90
51579;DHT22;47998;53.242;6.386;2023-05-09T01:49:34;13.20;99.90
51579;DHT22;47998;53.242;6.386;2023-05-09T01:52:04;13.50;99.90
51579;DHT22;47998;53.242;6.386;2023-05-09T01:54:30;13.40;99.90
51579;DHT22;47998;53.242;6.386;2023-05-09T01:56:58;13.30;99.90
51579;DHT22;47998;53.242;6.386;2023-05-09T01:59:25;13.40;99.90
51579;DHT22;47998;53.242;6.386;2023-05-09T02:01:51;13.50;99.90
51579;DHT22;47998;53.242;6.386;2023-05-09T02:04:20;13.30;99.90
51579;DHT22;47998;53.242;6.386;2023-05-09T02:06:47;13.50;99.90
51579;DHT22;47998;53.242;6.386;2023-05-09T02:09:19;13.60;99.90
51579;DHT22;47998;53.242;6.386;2023-05-09T02:11:45;13.60;99.90
51579;DHT22;47998;53.242;6.386;2023-05-09T02:14:12;13.50;99.90
51579;DHT22;47998;53.242;6.386;2023-05-09T02:16:38;13.60;99.90
51579;DHT22;47998;53.242;6.386;2023-05-09T02:19:04;13.30;99.90
51579;DHT22;47998;53.242;6.386;2023-05-09T02:21:30;13.30;99.90
51579;DHT22;47998;53.242;6.386;2023-05-09T02:23:56;13.50;99.90
51579;DHT22;47998;53.242;6.386;2023-05-09T02:26:24;13.60;99.90
51579;DHT22;47998;53.242;6.386;2023-05-09T02:28:51;13.30;99.90
51579;DHT22;47998;53.242;6.386;2023-05-09T02:31:19;13.60;99.90
51579;DHT22;47998;53.242;6.386;2023-05-09T02:33:45;13.20;99.90
51579;DHT22;47998;53.242;6.386;2023-05-09T02:36:13;13.20;99.90
51579;DHT22;47998;53.242;6.386;2023-05-09T02:38:40;13.40;99.90
51579;DHT22;47998;53.242;6.386;2023-05-09T02:41:06;13.30;99.90
51579;DHT22;47998;53.242;6.386;2023-05-09T02:43:32;13.20;99.90
51579;DHT22;47998;53.242;6.386;2023-05-09T02:45:57;13.10;99.90
51579;DHT22;47998;53.242;6.386;2023-05-09T02:48:23;13.00;99.90
51579;DHT22;47998;53.242;6.386;2023-05-09T02:50:49;13.20;99.90
51579;DHT22;47998;53.242;6.386;2023-05-09T02:53:14;12.90;99.90
51579;DHT22;47998;53.242;6.386;2023-05-09T02:55:40;13.00;99.90
51579;DHT22;47998;53.242;6.386;2023-05-09T02:58:07;12.70;99.90
51579;DHT22;47998;53.242;6.386;2023-05-09T03:00:32;12.70;99.90
51579;DHT22;47998;53.242;6.386;2023-05-09T03:02:59;12.80;99.90
51579;DHT22;47998;53.242;6.386;2023-05-09T03:05:24;12.80;99.90
51579;DHT22;47998;53.242;6.386;2023-05-09T03:07:50;13.10;99.90
51579;DHT22;47998;53.242;6.386;2023-05-09T03:10:16;12.70;99.90
51579;DHT22;47998;53.242;6.386;2023-05-09T03:12:42;12.70;99.90
51579;DHT22;47998;53.242;6.386;2023-05-09T03:15:08;12.90;99.90
51579;DHT22;47998;53.242;6.386;2023-05-09T03:17:34;12.70;99.90
51579;DHT22;47998;53.242;6.386;2023-05-09T03:20:00;12.90;99.90
51579;DHT22;47998;53.242;6.386;2023-05-09T03:22:26;12.90;99.90
51579;DHT22;47998;53.242;6.386;2023-05-09T03:24:51;13.00;99.90
51579;DHT22;47998;53.242;6.386;2023-05-09T03:27:18;12.60;99.90
51579;DHT22;47998;53.242;6.386;2023-05-09T03:29:43;13.00;99.90
51579;DHT22;47998;53.242;6.386;2023-05-09T03:32:09;12.60;99.90
51579;DHT22;47998;53.242;6.386;2023-05-09T03:34:35;12.90;99.90
51579;DHT22;47998;53.242;6.386;2023-05-09T03:37:00;12.70;99.90
51579;DHT22;47998;53.242;6.386;2023-05-09T03:39:26;13.00;99.90
51579;DHT22;47998;53.242;6.386;2023-05-09T03:41:51;13.00;99.90
51579;DHT22;47998;53.242;6.386;2023-05-09T03:44:17;12.90;99.90
51579;DHT22;47998;53.242;6.386;2023-05-09T03:46:43;13.00;99.90
51579;DHT22;47998;53.242;6.386;2023-05-09T03:49:09;13.10;99.90
51579;DHT22;47998;53.242;6.386;2023-05-09T03:51:34;13.20;99.90
51579;DHT22;47998;53.242;6.386;2023-05-09T03:54:01;12.80;99.90
51579;DHT22;47998;53.242;6.386;2023-05-09T03:56:26;13.30;99.90
51579;DHT22;47998;53.242;6.386;2023-05-09T03:58:52;13.20;99.90
51579;DHT22;47998;53.242;6.386;2023-05-09T04:01:18;13.10;99.90
51579;DHT22;47998;53.242;6.386;2023-05-09T04:03:43;13.00;99.90
51579;DHT22;47998;53.242;6.386;2023-05-09T04:06:09;13.00;99.90
51579;DHT22;47998;53.242;6.386;2023-05-09T04:08:35;13.20;99.90
51579;DHT22;47998;53.242;6.386;2023-05-09T04:11:01;13.10;99.90
51579;DHT22;47998;53.242;6.386;2023-05-09T04:13:27;13.00;99.90
51579;DHT22;47998;53.242;6.386;2023-05-09T04:15:54;12.90;99.90
51579;DHT22;47998;53.242;6.386;2023-05-09T04:18:20;13.00;99.90
51579;DHT22;47998;53.242;6.386;2023-05-09T04:20:45;13.20;99.90
51579;DHT22;47998;53.242;6.386;2023-05-09T04:23:11;13.30;99.90
51579;DHT22;47998;53.242;6.386;2023-05-09T04:25:37;12.90;99.90
51579;DHT22;47998;53.242;6.386;2023-05-09T04:28:03;13.10;99.90
51579;DHT22;47998;53.242;6.386;2023-05-09T04:30:28;13.10;99.90
51579;DHT22;47998;53.242;6.386;2023-05-09T04:32:54;13.30;99.90
51579;DHT22;47998;53.242;6.386;2023-05-09T04:35:20;13.00;99.90
51579;DHT22;47998;53.242;6.386;2023-05-09T04:37:47;13.10;99.90
51579;DHT22;47998;53.242;6.386;2023-05-09T04:40:13;13.20;99.90
51579;DHT22;47998;53.242;6.386;2023-05-09T04:42:39;13.60;99.90
51579;DHT22;47998;53.242;6.386;2023-05-09T04:45:06;13.30;99.90
51579;DHT22;47998;53.242;6.386;2023-05-09T04:47:32;13.60;99.90
51579;DHT22;47998;53.242;6.386;2023-05-09T04:49:57;13.20;99.90
51579;DHT22;47998;53.242;6.386;2023-05-09T04:52:23;13.60;99.90
51579;DHT22;47998;53.242;6.386;2023-05-09T04:54:49;13.70;99.90
51579;DHT22;47998;53.242;6.386;2023-05-09T04:57:15;13.80;99.90
51579;DHT22;47998;53.242;6.386;2023-05-09T04:59:41;13.90;99.90
51579;DHT22;47998;53.242;6.386;2023-05-09T05:02:07;13.50;99.90
51579;DHT22;47998;53.242;6.386;2023-05-09T05:04:32;13.60;99.90
51579;DHT22;47998;53.242;6.386;2023-05-09T05:06:58;14.10;99.90
51579;DHT22;47998;53.242;6.386;2023-05-09T05:09:24;14.20;99.90
51579;DHT22;47998;53.242;6.386;2023-05-09T05:11:49;13.80;99.90
51579;DHT22;47998;53.242;6.386;2023-05-09T05:14:15;14.40;99.90
51579;DHT22;47998;53.242;6.386;2023-05-09T05:16:41;14.10;99.90
51579;DHT22;47998;53.242;6.386;2023-05-09T05:19:07;14.20;99.90
51579;DHT22;47998;53.242;6.386;2023-05-09T05:21:32;14.60;99.90
51579;DHT22;47998;53.242;6.386;2023-05-09T05:23:58;14.20;99.90
51579;DHT22;47998;53.242;6.386;2023-05-09T05:26:24;14.30;99.90
51579;DHT22;47998;53.242;6.386;2023-05-09T05:28:50;14.80;99.90
51579;DHT22;47998;53.242;6.386;2023-05-09T05:31:20;14.80;99.90
51579;DHT22;47998;53.242;6.386;2023-05-09T05:33:46;14.50;99.90
51579;DHT22;47998;53.242;6.386;2023-05-09T05:36:11;14.80;99.90
51579;DHT22;47998;53.242;6.386;2023-05-09T05:38:37;14.80;99.90
51579;DHT22;47998;53.242;6.386;2023-05-09T05:41:03;15.00;99.90
51579;DHT22;47998;53.242;6.386;2023-05-09T05:43:29;15.00;99.90
51579;DHT22;47998;53.242;6.386;2023-05-09T05:45:54;14.70;99.90
51579;DHT22;47998;53.242;6.386;2023-05-09T05:48:20;15.00;99.90
51579;DHT22;47998;53.242;6.386;2023-05-09T05:50:46;14.80;99.90
51579;DHT22;47998;53.242;6.386;2023-05-09T05:53:12;15.10;99.90
51579;DHT22;47998;53.242;6.386;2023-05-09T05:55:38;15.10;99.90
51579;DHT22;47998;53.242;6.386;2023-05-09T05:58:03;14.90;99.90
51579;DHT22;47998;53.242;6.386;2023-05-09T06:00:29;15.00;99.90
51579;DHT22;47998;53.242;6.386;2023-05-09T06:02:55;15.20;99.90
51579;DHT22;47998;53.242;6.386;2023-05-09T06:05:21;15.00;99.90
51579;DHT22;47998;53.242;6.386;2023-05-09T06:07:46;15.30;99.90
51579;DHT22;47998;53.242;6.386;2023-05-09T06:10:12;15.10;99.90
51579;DHT22;47998;53.242;6.386;2023-05-09T06:12:40;15.40;99.90
51579;DHT22;47998;53.242;6.386;2023-05-09T06:15:06;15.30;99.90
51579;DHT22;47998;53.242;6.386;2023-05-09T06:17:32;15.50;99.90
51579;DHT22;47998;53.242;6.386;2023-05-09T06:19:58;15.40;99.90
51579;DHT22;47998;53.242;6.386;2023-05-09T06:22:24;15.70;99.90
51579;DHT22;47998;53.242;6.386;2023-05-09T06:24:50;15.80;99.90
51579;DHT22;47998;53.242;6.386;2023-05-09T06:27:15;15.80;99.90
51579;DHT22;47998;53.242;6.386;2023-05-09T06:29:41;15.90;99.90
51579;DHT22;47998;53.242;6.386;2023-05-09T06:32:07;16.10;99.90
51579;DHT22;47998;53.242;6.386;2023-05-09T06:34:33;16.10;99.90
51579;DHT22;47998;53.242;6.386;2023-05-09T06:36:58;16.20;99.90
51579;DHT22;47998;53.242;6.386;2023-05-09T06:39:24;16.30;99.90
51579;DHT22;47998;53.242;6.386;2023-05-09T06:41:50;16.40;99.90
51579;DHT22;47998;53.242;6.386;2023-05-09T06:44:15;16.30;99.90
51579;DHT22;47998;53.242;6.386;2023-05-09T06:46:41;16.30;99.90
51579;DHT22;47998;53.242;6.386;2023-05-09T06:49:07;16.20;99.90
51579;DHT22;47998;53.242;6.386;2023-05-09T06:51:33;16.30;99.90
51579;DHT22;47998;53.242;6.386;2023-05-09T06:53:58;16.20;99.90
51579;DHT22;47998;53.242;6.386;2023-05-09T06:56:25;16.20;99.90
51579;DHT22;47998;53.242;6.386;2023-05-09T06:58:51;16.10;99.90
51579;DHT22;47998;53.242;6.386;2023-05-09T07:01:17;16.10;99.90
51579;DHT22;47998;53.242;6.386;2023-05-09T07:03:43;16.10;99.90
51579;DHT22;47998;53.242;6.386;2023-05-09T07:06:09;16.30;99.90
51579;DHT22;47998;53.242;6.386;2023-05-09T07:08:34;16.40;99.90
51579;DHT22;47998;53.242;6.386;2023-05-09T07:11:00;16.50;99.90
51579;DHT22;47998;53.242;6.386;2023-05-09T07:13:26;16.60;99.90
51579;DHT22;47998;53.242;6.386;2023-05-09T07:15:52;16.70;99.90
51579;DHT22;47998;53.242;6.386;2023-05-09T07:18:17;16.80;99.90
51579;DHT22;47998;53.242;6.386;2023-05-09T07:20:43;16.90;99.90
51579;DHT22;47998;53.242;6.386;2023-05-09T07:23:08;16.90;99.90
51579;DHT22;47998;53.242;6.386;2023-05-09T07:25:34;16.90;99.90
51579;DHT22;47998;53.242;6.386;2023-05-09T07:28:01;17.10;99.90
51579;DHT22;47998;53.242;6.386;2023-05-09T07:30:26;17.20;99.90
51579;DHT22;47998;53.242;6.386;2023-05-09T07:32:52;17.20;99.90
51579;DHT22;47998;53.242;6.386;2023-05-09T07:35:18;17.20;99.90
51579;DHT22;47998;53.242;6.386;2023-05-09T07:37:44;17.20;99.90
51579;DHT22;47998;53.242;6.386;2023-05-09T07:40:11;17.10;99.90
51579;DHT22;47998;53.242;6.386;2023-05-09T07:42:36;16.90;99.90
51579;DHT22;47998;53.242;6.386;2023-05-09T07:45:03;16.60;99.90
51579;DHT22;47998;53.242;6.386;2023-05-09T07:47:31;16.60;99.90
51579;DHT22;47998;53.242;6.386;2023-05-09T07:49:57;16.60;99.90
51579;DHT22;47998;53.242;6.386;2023-05-09T07:52:23;16.60;99.90
51579;DHT22;47998;53.242;6.386;2023-05-09T07:54:48;16.50;99.90
51579;DHT22;47998;53.242;6.386;2023-05-09T07:57:14;16.50;99.90
51579;DHT22;47998;53.242;6.386;2023-05-09T07:59:40;16.50;99.90
51579;DHT22;47998;53.242;6.386;2023-05-09T08:02:07;16.50;99.90
51579;DHT22;47998;53.242;6.386;2023-05-09T08:04:33;16.40;99.90
51579;DHT22;47998;53.242;6.386;2023-05-09T08:07:02;16.40;99.90
51579;DHT22;47998;53.242;6.386;2023-05-09T08:09:28;16.40;99.90
51579;DHT22;47998;53.242;6.386;2023-05-09T08:11:54;16.30;99.90
51579;DHT22;47998;53.242;6.386;2023-05-09T08:14:20;16.30;99.90
51579;DHT22;47998;53.242;6.386;2023-05-09T08:16:46;16.20;99.90
51579;DHT22;47998;53.242;6.386;2023-05-09T08:19:12;16.30;99.90
51579;DHT22;47998;53.242;6.386;2023-05-09T08:21:38;16.20;99.90
51579;DHT22;47998;53.242;6.386;2023-05-09T08:24:04;16.30;99.90
51579;DHT22;47998;53.242;6.386;2023-05-09T08:26:33;16.30;99.90
51579;DHT22;47998;53.242;6.386;2023-05-09T08:28:59;16.30;99.90
51579;DHT22;47998;53.242;6.386;2023-05-09T08:31:26;16.30;99.90
51579;DHT22;47998;53.242;6.386;2023-05-09T08:33:52;16.30;99.90
51579;DHT22;47998;53.242;6.386;2023-05-09T08:36:18;16.40;99.90
51579;DHT22;47998;53.242;6.386;2023-05-09T08:38:43;16.50;99.90
51579;DHT22;47998;53.242;6.386;2023-05-09T08:41:10;16.50;99.90
51579;DHT22;47998;53.242;6.386;2023-05-09T08:43:37;16.60;99.90
51579;DHT22;47998;53.242;6.386;2023-05-09T08:46:08;16.70;99.90
51579;DHT22;47998;53.242;6.386;2023-05-09T08:48:35;16.80;99.90
51579;DHT22;47998;53.242;6.386;2023-05-09T08:51:05;16.90;99.90
51579;DHT22;47998;53.242;6.386;2023-05-09T08:53:31;16.90;99.90
51579;DHT22;47998;53.242;6.386;2023-05-09T08:56:01;17.00;99.90
51579;DHT22;47998;53.242;6.386;2023-05-09T08:58:27;17.10;99.90
51579;DHT22;47998;53.242;6.386;2023-05-09T09:00:54;17.20;99.90
51579;DHT22;47998;53.242;6.386;2023-05-09T09:03:20;17.30;99.90
51579;DHT22;47998;53.242;6.386;2023-05-09T09:05:47;17.40;99.90
51579;DHT22;47998;53.242;6.386;2023-05-09T09:08:14;17.60;99.90
51579;DHT22;47998;53.242;6.386;2023-05-09T09:10:40;17.80;99.90
51579;DHT22;47998;53.242;6.386;2023-05-09T09:13:13;17.90;99.90
51579;DHT22;47998;53.242;6.386;2023-05-09T09:15:40;18.10;99.90
51579;DHT22;47998;53.242;6.386;2023-05-09T09:18:08;18.10;99.90
51579;DHT22;47998;53.242;6.386;2023-05-09T09:20:44;18.30;99.90
51579;DHT22;47998;53.242;6.386;2023-05-09T09:23:10;18.50;99.90
51579;DHT22;47998;53.242;6.386;2023-05-09T09:25:37;18.80;99.90
51579;DHT22;47998;53.242;6.386;2023-05-09T09:28:03;18.90;99.90
51579;DHT22;47998;53.242;6.386;2023-05-09T09:30:29;18.90;99.90
51579;DHT22;47998;53.242;6.386;2023-05-09T09:32:57;18.90;99.90
51579;DHT22;47998;53.242;6.386;2023-05-09T09:35:23;19.00;99.90
51579;DHT22;47998;53.242;6.386;2023-05-09T09:37:55;19.20;99.90
51579;DHT22;47998;53.242;6.386;2023-05-09T09:40:23;19.20;99.90
51579;DHT22;47998;53.242;6.386;2023-05-09T09:42:51;19.30;99.90
51579;DHT22;47998;53.242;6.386;2023-05-09T09:45:19;19.40;99.90
51579;DHT22;47998;53.242;6.386;2023-05-09T09:47:47;19.30;99.90
51579;DHT22;47998;53.242;6.386;2023-05-09T09:50:16;19.20;99.90
51579;DHT22;47998;53.242;6.386;2023-05-09T09:52:43;19.00;99.90
51579;DHT22;47998;53.242;6.386;2023-05-09T09:55:09;19.00;99.90
51579;DHT22;47998;53.242;6.386;2023-05-09T09:57:37;19.00;99.90
51579;DHT22;47998;53.242;6.386;2023-05-09T10:00:04;19.20;99.90
51579;DHT22;47998;53.242;6.386;2023-05-09T10:02:30;19.20;99.90
51579;DHT22;47998;53.242;6.386;2023-05-09T10:05:05;19.30;99.90
51579;DHT22;47998;53.242;6.386;2023-05-09T10:07:33;19.20;1.00
51579;DHT22;47998;53.242;6.386;2023-05-09T10:10:03;19.40;49.20
51579;DHT22;47998;53.242;6.386;2023-05-09T10:12:35;19.80;7.60
51579;DHT22;47998;53.242;6.386;2023-05-09T10:15:08;19.90;1.00
51579;DHT22;47998;53.242;6.386;2023-05-09T10:17:34;19.70;99.90
51579;DHT22;47998;53.242;6.386;2023-05-09T10:20:04;19.70;1.00
51579;DHT22;47998;53.242;6.386;2023-05-09T10:22:33;19.60;99.90
51579;DHT22;47998;53.242;6.386;2023-05-09T10:25:16;19.40;99.90
51579;DHT22;47998;53.242;6.386;2023-05-09T10:27:44;19.30;1.00
51579;DHT22;47998;53.242;6.386;2023-05-09T10:35:15;18.90;1.00
51579;DHT22;47998;53.242;6.386;2023-05-09T10:37:42;19.00;1.00
51579;DHT22;47998;53.242;6.386;2023-05-09T10:40:09;19.10;99.90
51579;DHT22;47998;53.242;6.386;2023-05-09T10:42:42;19.00;99.90
51579;DHT22;47998;53.242;6.386;2023-05-09T10:45:09;19.00;99.90
51579;DHT22;47998;53.242;6.386;2023-05-09T10:47:37;18.90;1.00
51579;DHT22;47998;53.242;6.386;2023-05-09T10:50:05;18.80;99.90
51579;DHT22;47998;53.242;6.386;2023-05-09T10:52:32;19.00;99.90
51579;DHT22;47998;53.242;6.386;2023-05-09T10:55:03;19.40;99.90
51579;DHT22;47998;53.242;6.386;2023-05-09T10:57:30;19.70;99.90
51579;DHT22;47998;53.242;6.386;2023-05-09T10:59:57;19.70;97.90
51579;DHT22;47998;53.242;6.386;2023-05-09T11:02:24;19.50;3.00
51579;DHT22;47998;53.242;6.386;2023-05-09T11:05:17;18.90;99.90
51579;DHT22;47998;53.242;6.386;2023-05-09T11:07:44;18.80;1.00
51579;DHT22;47998;53.242;6.386;2023-05-09T11:10:14;18.50;1.00
51579;DHT22;47998;53.242;6.386;2023-05-09T11:12:56;18.50;1.00
51579;DHT22;47998;53.242;6.386;2023-05-09T11:15:21;18.40;8.70
51579;DHT22;47998;53.242;6.386;2023-05-09T11:17:50;18.40;1.00
51579;DHT22;47998;53.242;6.386;2023-05-09T11:20:33;18.40;1.00
51579;DHT22;47998;53.242;6.386;2023-05-09T11:23:00;18.50;32.10
51579;DHT22;47998;53.242;6.386;2023-05-09T11:25:28;18.50;99.90
51579;DHT22;47998;53.242;6.386;2023-05-09T11:27:59;18.40;35.90
51579;DHT22;47998;53.242;6.386;2023-05-09T11:30:38;18.50;1.00
51579;DHT22;47998;53.242;6.386;2023-05-09T11:33:05;18.50;1.00
51579;DHT22;47998;53.242;6.386;2023-05-09T11:35:36;18.50;73.00
51579;DHT22;47998;53.242;6.386;2023-05-09T11:38:06;18.60;1.00
51579;DHT22;47998;53.242;6.386;2023-05-09T11:40:33;18.70;99.90
51579;DHT22;47998;53.242;6.386;2023-05-09T11:43:00;18.80;1.00
51579;DHT22;47998;53.242;6.386;2023-05-09T11:45:29;18.80;1.00
51579;DHT22;47998;53.242;6.386;2023-05-09T11:47:55;18.60;1.00
51579;DHT22;47998;53.242;6.386;2023-05-09T11:50:22;18.50;1.00
51579;DHT22;47998;53.242;6.386;2023-05-09T11:52:48;18.50;37.10
51579;DHT22;47998;53.242;6.386;2023-05-09T11:55:19;18.50;99.90
51579;DHT22;47998;53.242;6.386;2023-05-09T11:57:51;18.70;4.40
51579;DHT22;47998;53.242;6.386;2023-05-09T12:00:22;18.90;1.00
51579;DHT22;47998;53.242;6.386;2023-05-09T12:02:48;18.90;99.90
51579;DHT22;47998;53.242;6.386;2023-05-09T12:05:20;19.00;1.00
51579;DHT22;47998;53.242;6.386;2023-05-09T12:07:46;19.00;99.90
51579;DHT22;47998;53.242;6.386;2023-05-09T12:10:14;19.10;1.00
51579;DHT22;47998;53.242;6.386;2023-05-09T12:12:43;19.20;1.00
51579;DHT22;47998;53.242;6.386;2023-05-09T12:15:09;19.20;1.00
51579;DHT22;47998;53.242;6.386;2023-05-09T12:17:35;19.30;1.00
51579;DHT22;47998;53.242;6.386;2023-05-09T12:20:02;19.50;1.00
51579;DHT22;47998;53.242;6.386;2023-05-09T12:22:30;19.60;1.00
51579;DHT22;47998;53.242;6.386;2023-05-09T12:25:00;19.70;1.00
51579;DHT22;47998;53.242;6.386;2023-05-09T12:27:27;19.70;99.90
51579;DHT22;47998;53.242;6.386;2023-05-09T12:29:53;19.70;99.90
51579;DHT22;47998;53.242;6.386;2023-05-09T12:32:19;19.60;99.90
51579;DHT22;47998;53.242;6.386;2023-05-09T12:34:46;19.30;99.90
51579;DHT22;47998;53.242;6.386;2023-05-09T12:37:17;19.30;99.90
51579;DHT22;47998;53.242;6.386;2023-05-09T12:40:05;19.30;99.90
51579;DHT22;47998;53.242;6.386;2023-05-09T12:42:34;19.30;99.90
51579;DHT22;47998;53.242;6.386;2023-05-09T12:45:01;19.50;99.90
51579;DHT22;47998;53.242;6.386;2023-05-09T12:47:28;19.60;99.90
51579;DHT22;47998;53.242;6.386;2023-05-09T12:49:58;19.60;99.90
51579;DHT22;47998;53.242;6.386;2023-05-09T12:52:24;19.70;99.90
51579;DHT22;47998;53.242;6.386;2023-05-09T12:54:51;19.70;99.90
51579;DHT22;47998;53.242;6.386;2023-05-09T12:57:21;19.60;99.90
51579;DHT22;47998;53.242;6.386;2023-05-09T12:59:48;19.70;1.00
51579;DHT22;47998;53.242;6.386;2023-05-09T13:02:13;19.60;1.00
51579;DHT22;47998;53.242;6.386;2023-05-09T13:04:39;19.40;1.00
51579;DHT22;47998;53.242;6.386;2023-05-09T13:07:08;19.20;1.00
51579;DHT22;47998;53.242;6.386;2023-05-09T13:09:35;19.00;1.00
51579;DHT22;47998;53.242;6.386;2023-05-09T13:12:02;18.90;99.90
51579;DHT22;47998;53.242;6.386;2023-05-09T13:14:28;18.80;99.90
51579;DHT22;47998;53.242;6.386;2023-05-09T13:16:54;18.60;99.90
51579;DHT22;47998;53.242;6.386;2023-05-09T13:19:20;18.50;99.90
51579;DHT22;47998;53.242;6.386;2023-05-09T13:21:46;18.40;1.00
51579;DHT22;47998;53.242;6.386;2023-05-09T13:24:12;18.20;1.00
51579;DHT22;47998;53.242;6.386;2023-05-09T13:26:38;18.20;1.00
51579;DHT22;47998;53.242;6.386;2023-05-09T13:29:04;18.10;38.50
51579;DHT22;47998;53.242;6.386;2023-05-09T13:31:30;18.00;97.20
51579;DHT22;47998;53.242;6.386;2023-05-09T13:33:55;17.80;99.90
51579;DHT22;47998;53.242;6.386;2023-05-09T13:36:21;17.70;99.90
51579;DHT22;47998;53.242;6.386;2023-05-09T13:38:47;17.70;99.90
51579;DHT22;47998;53.242;6.386;2023-05-09T13:41:13;17.60;99.90
51579;DHT22;47998;53.242;6.386;2023-05-09T13:43:44;17.50;99.90
51579;DHT22;47998;53.242;6.386;2023-05-09T13:46:10;17.50;99.90
51579;DHT22;47998;53.242;6.386;2023-05-09T13:48:35;17.50;99.90
51579;DHT22;47998;53.242;6.386;2023-05-09T13:51:02;17.30;99.90
51579;DHT22;47998;53.242;6.386;2023-05-09T13:53:28;17.20;99.90
51579;DHT22;47998;53.242;6.386;2023-05-09T13:55:53;17.20;99.90
51579;DHT22;47998;53.242;6.386;2023-05-09T13:58:19;17.20;99.90
51579;DHT22;47998;53.242;6.386;2023-05-09T14:00:45;17.10;99.90
51579;DHT22;47998;53.242;6.386;2023-05-09T14:03:11;17.00;99.90
51579;DHT22;47998;53.242;6.386;2023-05-09T14:05:37;17.00;99.90
51579;DHT22;47998;53.242;6.386;2023-05-09T14:08:02;17.00;99.90
51579;DHT22;47998;53.242;6.386;2023-05-09T14:10:28;16.90;99.90
51579;DHT22;47998;53.242;6.386;2023-05-09T14:12:54;16.90;99.90
51579;DHT22;47998;53.242;6.386;2023-05-09T14:15:20;16.80;99.90
51579;DHT22;47998;53.242;6.386;2023-05-09T14:17:46;16.60;99.90
51579;DHT22;47998;53.242;6.386;2023-05-09T14:20:12;16.50;99.90
51579;DHT22;47998;53.242;6.386;2023-05-09T14:22:40;16.50;99.90
51579;DHT22;47998;53.242;6.386;2023-05-09T14:25:06;16.40;99.90
51579;DHT22;47998;53.242;6.386;2023-05-09T14:27:32;16.30;99.90
51579;DHT22;47998;53.242;6.386;2023-05-09T14:30:04;16.20;99.90
51579;DHT22;47998;53.242;6.386;2023-05-09T14:32:30;16.20;99.90
51579;DHT22;47998;53.242;6.386;2023-05-09T14:34:56;16.00;99.90
51579;DHT22;47998;53.242;6.386;2023-05-09T14:37:21;16.00;99.90
51579;DHT22;47998;53.242;6.386;2023-05-09T14:39:47;16.00;99.90
51579;DHT22;47998;53.242;6.386;2023-05-09T14:42:13;16.10;99.90
51579;DHT22;47998;53.242;6.386;2023-05-09T14:44:41;16.00;99.90
51579;DHT22;47998;53.242;6.386;2023-05-09T14:47:07;16.00;99.90
51579;DHT22;47998;53.242;6.386;2023-05-09T14:49:33;16.00;99.90
51579;DHT22;47998;53.242;6.386;2023-05-09T14:51:59;15.90;99.90
51579;DHT22;47998;53.242;6.386;2023-05-09T14:54:25;15.90;99.90
51579;DHT22;47998;53.242;6.386;2023-05-09T14:56:51;16.00;99.90
51579;DHT22;47998;53.242;6.386;2023-05-09T14:59:17;16.10;99.90
51579;DHT22;47998;53.242;6.386;2023-05-09T15:01:43;16.10;99.90
51579;DHT22;47998;53.242;6.386;2023-05-09T15:04:10;16.20;99.90
51579;DHT22;47998;53.242;6.386;2023-05-09T15:06:36;16.10;99.90
51579;DHT22;47998;53.242;6.386;2023-05-09T15:09:02;16.10;99.90
51579;DHT22;47998;53.242;6.386;2023-05-09T15:11:28;16.00;99.90
51579;DHT22;47998;53.242;6.386;2023-05-09T15:13:54;16.10;99.90
51579;DHT22;47998;53.242;6.386;2023-05-09T15:16:20;16.10;99.90
51579;DHT22;47998;53.242;6.386;2023-05-09T15:18:46;16.10;99.90
51579;DHT22;47998;53.242;6.386;2023-05-09T15:21:11;16.00;99.90
51579;DHT22;47998;53.242;6.386;2023-05-09T15:23:38;16.00;99.90
51579;DHT22;47998;53.242;6.386;2023-05-09T15:26:06;16.10;99.90
51579;DHT22;47998;53.242;6.386;2023-05-09T15:28:38;16.00;99.90
51579;DHT22;47998;53.242;6.386;2023-05-09T15:31:04;16.00;99.90
51579;DHT22;47998;53.242;6.386;2023-05-09T15:33:31;15.90;99.90
51579;DHT22;47998;53.242;6.386;2023-05-09T15:35:57;15.80;99.90
51579;DHT22;47998;53.242;6.386;2023-05-09T15:38:27;15.80;99.90
51579;DHT22;47998;53.242;6.386;2023-05-09T15:40:53;15.70;99.90
51579;DHT22;47998;53.242;6.386;2023-05-09T15:43:19;15.80;99.90
51579;DHT22;47998;53.242;6.386;2023-05-09T15:45:45;15.70;99.90
51579;DHT22;47998;53.242;6.386;2023-05-09T15:48:14;15.60;99.90